createdAt,value
2022-11-21T00:00:59.208Z,12.90
2022-11-21T00:02:10.049Z,14.73
2022-11-21T00:03:12.362Z,12.88
2022-11-21T00:04:14.824Z,12.75
2022-11-21T00:05:16.598Z,12.52
2022-11-21T00:06:19.506Z,12.70
2022-11-21T00:07:21.157Z,11.98
2022-11-21T00:08:23.685Z,13.98
2022-11-21T00:09:25.297Z,12.80
2022-11-21T00:10:27.762Z,12.73
2022-11-21T00:11:29.246Z,12.45
2022-11-21T00:12:31.778Z,11.93
2022-11-21T00:13:33.269Z,12.73
2022-11-21T00:14:35.877Z,12.07
2022-11-21T00:15:39.347Z,12.25
2022-11-21T00:16:41.847Z,12.52
2022-11-21T00:17:43.362Z,12.23
2022-11-21T00:18:45.860Z,11.65
2022-11-21T00:19:47.385Z,12.98
2022-11-21T00:20:49.979Z,11.63
2022-11-21T00:21:51.486Z,13.10
2022-11-21T00:22:53.966Z,11.07
2022-11-21T00:23:55.436Z,12.00
2022-11-21T00:24:57.895Z,10.40
2022-11-21T00:25:59.447Z,11.18
2022-11-21T00:27:01.930Z,10.75
2022-11-21T00:28:03.664Z,10.77
2022-11-21T00:29:06.100Z,11.98
2022-11-21T00:30:10.041Z,12.00
2022-11-21T00:31:21.464Z,12.68
2022-11-21T00:32:23.225Z,11.70
2022-11-21T00:33:25.797Z,13.10
2022-11-21T00:34:27.654Z,10.20
2022-11-21T00:35:32.168Z,11.77
2022-11-21T00:36:33.974Z,11.35
2022-11-21T00:37:36.588Z,10.82
2022-11-21T00:38:38.147Z,10.55
2022-11-21T00:39:40.786Z,12.05
2022-11-21T00:40:42.692Z,11.70
2022-11-21T00:41:45.218Z,10.95
2022-11-21T00:42:46.725Z,11.40
2022-11-21T00:43:49.258Z,10.93
2022-11-21T00:44:50.818Z,12.80
2022-11-21T00:45:53.688Z,12.40
2022-11-21T00:46:56.637Z,13.43
2022-11-21T00:47:59.115Z,11.05
2022-11-21T00:49:00.710Z,12.23
2022-11-21T00:50:03.216Z,12.40
2022-11-21T00:51:04.689Z,13.13
2022-11-21T00:52:07.153Z,12.70
2022-11-21T00:53:08.649Z,14.05
2022-11-21T00:54:11.306Z,15.90
2022-11-21T00:55:12.794Z,14.73
2022-11-21T00:56:15.243Z,15.05
2022-11-21T00:57:16.837Z,13.45
2022-11-21T00:58:19.358Z,15.32
2022-11-21T00:59:20.843Z,15.18
2022-11-21T01:00:23.521Z,15.13
2022-11-21T01:01:25.138Z,15.00
2022-11-21T01:02:29.062Z,16.55
2022-11-21T01:03:32.365Z,16.60
2022-11-21T01:04:36.262Z,16.02
2022-11-21T01:05:37.766Z,16.45
2022-11-21T01:06:40.251Z,16.15
2022-11-21T01:07:41.801Z,17.20
2022-11-21T01:08:45.540Z,16.95
2022-11-21T01:09:47.106Z,15.05
2022-11-21T01:10:49.611Z,18.25
2022-11-21T01:11:51.221Z,16.95
2022-11-21T01:12:53.713Z,19.88
2022-11-21T01:13:55.266Z,19.98
2022-11-21T01:14:57.877Z,20.13
2022-11-21T01:16:03.696Z,18.80
2022-11-21T01:17:06.229Z,19.90
2022-11-21T01:18:10.063Z,19.75
2022-11-21T01:19:12.607Z,20.73
2022-11-21T01:20:14.123Z,19.45
2022-11-21T01:21:18.868Z,19.45
2022-11-21T01:22:20.375Z,20.77
2022-11-21T01:23:22.912Z,20.08
2022-11-21T01:24:24.496Z,21.00
2022-11-21T01:25:27.178Z,20.65
2022-11-21T01:26:30.330Z,24.60
2022-11-21T01:27:33.874Z,22.15
2022-11-21T01:28:35.648Z,19.67
2022-11-21T01:29:38.187Z,23.38
2022-11-21T01:30:39.814Z,19.52
2022-11-21T01:31:42.334Z,23.50
2022-11-21T01:32:47.388Z,20.65
2022-11-21T01:33:51.830Z,21.05
2022-11-21T01:34:53.374Z,19.55
2022-11-21T01:35:55.817Z,22.35
2022-11-21T01:36:57.410Z,23.08
2022-11-21T01:37:59.853Z,21.63
2022-11-21T01:39:03.315Z,19.80
2022-11-21T01:40:06.635Z,20.35
2022-11-21T01:41:08.729Z,20.52
2022-11-21T01:42:13.647Z,20.77
2022-11-21T01:43:16.401Z,22.77
2022-11-21T01:44:20.755Z,22.05
2022-11-21T01:45:53.094Z,21.00
2022-11-21T01:46:55.708Z,23.00
2022-11-21T01:47:57.501Z,21.10
2022-11-21T01:49:05.710Z,20.27
2022-11-21T01:50:12.813Z,22.25
2022-11-21T01:51:20.268Z,21.92
2022-11-21T01:52:27.012Z,21.05
2022-11-21T01:53:28.846Z,22.35
2022-11-21T01:54:37.575Z,22.05
2022-11-21T01:55:39.110Z,21.60
2022-11-21T01:56:45.697Z,21.17
2022-11-21T01:57:49.471Z,22.55
2022-11-21T01:58:54.607Z,21.80
2022-11-21T01:59:59.881Z,23.02
2022-11-21T02:01:03.583Z,21.92
2022-11-21T02:02:09.566Z,21.50
2022-11-21T02:03:15.906Z,22.88
2022-11-21T02:04:20.723Z,22.67
2022-11-21T02:05:25.452Z,21.48
2022-11-21T02:06:28.764Z,23.02
2022-11-21T02:07:34.868Z,22.75
2022-11-21T02:08:38.206Z,20.73
2022-11-21T02:09:44.485Z,21.95
2022-11-21T02:10:53.714Z,20.60
2022-11-21T02:12:01.003Z,21.60
2022-11-21T02:13:02.551Z,21.15
2022-11-21T02:14:05.190Z,23.60
2022-11-21T02:15:08.146Z,22.20
2022-11-21T02:16:10.751Z,22.80
2022-11-21T02:17:12.358Z,20.13
2022-11-21T02:18:14.834Z,24.15
2022-11-21T02:19:24.290Z,21.70
2022-11-21T02:20:29.008Z,22.45
2022-11-21T02:21:41.951Z,21.88
2022-11-21T02:22:53.468Z,24.80
2022-11-21T02:24:00.965Z,23.73
2022-11-21T02:25:07.999Z,25.38
2022-11-21T02:26:10.779Z,22.02
2022-11-21T02:27:13.676Z,23.77
2022-11-21T02:28:19.249Z,22.92
2022-11-21T02:29:21.979Z,23.15
2022-11-21T02:30:23.806Z,21.35
2022-11-21T02:31:26.288Z,23.20
2022-11-21T02:32:33.508Z,23.38
2022-11-21T02:33:36.239Z,23.10
2022-11-21T02:34:37.740Z,24.55
2022-11-21T02:35:40.938Z,23.45
2022-11-21T02:36:45.707Z,20.75
2022-11-21T02:37:52.760Z,22.42
2022-11-21T02:38:54.270Z,24.00
2022-11-21T02:40:00.219Z,20.13
2022-11-21T02:41:13.022Z,22.52
2022-11-21T02:42:20.951Z,22.63
2022-11-21T02:43:24.665Z,21.77
2022-11-21T02:44:32.862Z,21.17
2022-11-21T02:45:39.018Z,22.42
2022-11-21T02:46:48.954Z,20.85
2022-11-21T02:47:58.158Z,22.23
2022-11-21T02:49:07.970Z,21.08
2022-11-21T02:50:14.548Z,21.52
2022-11-21T02:51:16.194Z,19.63
2022-11-21T02:52:18.649Z,21.63
2022-11-21T02:53:20.309Z,22.17
2022-11-21T02:54:22.825Z,19.92
2022-11-21T02:55:25.129Z,22.98
2022-11-21T02:56:28.961Z,22.88
2022-11-21T02:57:30.933Z,22.10
2022-11-21T02:58:33.413Z,22.13
2022-11-21T02:59:34.896Z,20.13
2022-11-21T03:00:40.954Z,19.88
2022-11-21T03:01:42.553Z,20.00
2022-11-21T03:02:45.715Z,20.85
2022-11-21T03:03:47.294Z,20.75
2022-11-21T03:04:49.898Z,21.33
2022-11-21T03:05:51.554Z,19.98
2022-11-21T03:06:54.052Z,22.35
2022-11-21T03:07:55.570Z,20.80
2022-11-21T03:08:58.103Z,23.67
2022-11-21T03:09:59.636Z,21.38
2022-11-21T03:11:02.097Z,21.10
2022-11-21T03:12:08.466Z,20.33
2022-11-21T03:13:10.057Z,19.83
2022-11-21T03:14:12.758Z,20.35
2022-11-21T03:15:15.605Z,20.40
2022-11-21T03:16:19.160Z,19.52
2022-11-21T03:17:20.665Z,19.83
2022-11-21T03:18:23.140Z,21.73
2022-11-21T03:19:24.653Z,21.27
2022-11-21T03:20:27.184Z,21.02
2022-11-21T03:21:28.682Z,21.10
2022-11-21T03:22:31.235Z,22.35
2022-11-21T03:23:32.776Z,22.70
2022-11-21T03:24:35.622Z,22.60
2022-11-21T03:25:37.204Z,21.92
2022-11-21T03:26:39.700Z,21.10
2022-11-21T03:27:42.698Z,21.63
2022-11-21T03:28:45.213Z,23.10
2022-11-21T03:29:46.946Z,22.45
2022-11-21T03:30:49.397Z,22.05
2022-11-21T03:31:50.966Z,21.80
2022-11-21T03:32:56.404Z,22.25
2022-11-21T03:33:57.925Z,23.63
2022-11-21T03:35:00.418Z,21.73
2022-11-21T03:36:01.956Z,24.27
2022-11-21T03:37:04.831Z,20.10
2022-11-21T03:38:06.319Z,23.33
2022-11-21T03:39:09.238Z,26.23
2022-11-21T03:40:11.853Z,22.75
2022-11-21T03:41:28.283Z,22.35
2022-11-21T03:42:30.743Z,24.35
2022-11-21T03:43:33.605Z,26.52
2022-11-21T03:44:36.064Z,22.45
2022-11-21T03:45:37.686Z,22.90
2022-11-21T03:46:42.466Z,22.90
2022-11-21T03:47:43.968Z,23.63
2022-11-21T03:48:46.464Z,23.35
2022-11-21T03:49:48.975Z,25.73
2022-11-21T03:50:51.509Z,21.90
2022-11-21T03:51:52.997Z,24.73
2022-11-21T03:52:55.432Z,23.77
2022-11-21T03:53:57.349Z,24.92
2022-11-21T03:54:59.953Z,21.65
2022-11-21T03:56:01.512Z,21.50
2022-11-21T03:57:04.176Z,23.48
2022-11-21T03:58:05.854Z,26.27
2022-11-21T03:59:09.777Z,24.00
2022-11-21T04:00:13.034Z,23.50
2022-11-21T04:01:16.122Z,21.63
2022-11-21T04:02:17.636Z,25.00
2022-11-21T04:03:20.211Z,22.38
2022-11-21T04:04:21.742Z,25.45
2022-11-21T04:05:24.201Z,23.27
2022-11-21T04:06:26.150Z,24.20
2022-11-21T04:07:30.235Z,23.35
2022-11-21T04:08:32.413Z,22.00
2022-11-21T04:09:34.928Z,24.55
2022-11-21T04:10:36.414Z,23.42
2022-11-21T04:11:38.975Z,24.02
2022-11-21T04:12:40.499Z,23.52
2022-11-21T04:13:43.439Z,23.67
2022-11-21T04:14:46.293Z,23.67
2022-11-21T04:15:48.782Z,24.70
2022-11-21T04:16:50.362Z,23.42
2022-11-21T04:17:52.975Z,21.58
2022-11-21T04:18:54.541Z,20.95
2022-11-21T04:19:57.022Z,24.63
2022-11-21T04:20:59.309Z,23.05
2022-11-21T04:22:01.845Z,23.38
2022-11-21T04:23:03.536Z,21.30
2022-11-21T04:24:07.044Z,23.65
2022-11-21T04:25:08.726Z,21.58
2022-11-21T04:26:11.238Z,22.42
2022-11-21T04:27:12.845Z,23.50
2022-11-21T04:28:15.466Z,20.15
2022-11-21T04:29:17.057Z,20.60
2022-11-21T04:30:20.920Z,19.50
2022-11-21T04:31:22.421Z,20.77
2022-11-21T04:32:24.929Z,21.50
2022-11-21T04:33:26.445Z,20.48
2022-11-21T04:34:29.492Z,20.42
2022-11-21T04:35:31.309Z,22.27
2022-11-21T04:36:33.857Z,20.20
2022-11-21T04:37:35.490Z,20.52
2022-11-21T04:38:38.120Z,21.30
2022-11-21T04:39:39.631Z,20.60
2022-11-21T04:40:44.342Z,19.95
2022-11-21T04:41:45.869Z,20.45
2022-11-21T04:42:49.186Z,19.17
2022-11-21T04:43:50.696Z,20.65
2022-11-21T04:44:53.233Z,19.83
2022-11-21T04:45:56.059Z,19.63
2022-11-21T04:47:04.889Z,22.90
2022-11-21T04:48:07.178Z,19.00
2022-11-21T04:49:09.609Z,20.25
2022-11-21T04:50:12.918Z,18.75
2022-11-21T04:51:15.369Z,20.90
2022-11-21T04:52:16.908Z,19.75
2022-11-21T04:53:19.420Z,20.73
2022-11-21T04:54:21.001Z,20.35
2022-11-21T04:55:26.578Z,19.23
2022-11-21T04:56:28.215Z,20.10
2022-11-21T04:57:32.099Z,18.92
2022-11-21T04:58:33.677Z,21.88
2022-11-21T04:59:36.258Z,20.33
2022-11-21T05:00:37.793Z,20.23
2022-11-21T05:01:41.605Z,20.10
2022-11-21T05:02:43.251Z,20.67
2022-11-21T05:03:45.732Z,19.52
2022-11-21T05:04:47.385Z,20.02
2022-11-21T05:05:50.028Z,22.27
2022-11-21T05:06:51.590Z,23.27
2022-11-21T05:07:54.026Z,22.25
2022-11-21T05:08:55.543Z,20.52
2022-11-21T05:09:58.222Z,19.13
2022-11-21T05:11:18.645Z,19.70
2022-11-21T05:12:38.763Z,22.52
2022-11-21T05:13:40.299Z,20.95
2022-11-21T05:14:42.883Z,22.08
2022-11-21T05:15:45.075Z,20.92
2022-11-21T05:16:48.967Z,20.25
2022-11-21T05:17:50.495Z,19.67
2022-11-21T05:18:52.921Z,20.73
2022-11-21T05:19:54.529Z,37.40
2022-11-21T05:20:57.558Z,20.80
2022-11-21T05:21:59.070Z,21.00
2022-11-21T05:23:01.538Z,20.95
2022-11-21T05:24:04.086Z,21.70
2022-11-21T05:25:06.248Z,21.55
2022-11-21T05:26:08.763Z,21.23
2022-11-21T05:27:10.447Z,20.27
2022-11-21T05:28:13.063Z,21.85
2022-11-21T05:29:14.611Z,21.77
2022-11-21T05:30:17.381Z,20.55
2022-11-21T05:31:18.917Z,21.33
2022-11-21T05:32:22.897Z,22.10
2022-11-21T05:33:24.404Z,20.38
2022-11-21T05:34:27.390Z,20.83
2022-11-21T05:35:29.175Z,22.60
2022-11-21T05:36:32.008Z,22.80
2022-11-21T05:37:33.611Z,21.17
2022-11-21T05:38:36.231Z,20.85
2022-11-21T05:39:37.743Z,21.27
2022-11-21T05:40:40.510Z,22.70
2022-11-21T05:41:43.032Z,21.08
2022-11-21T05:43:03.578Z,22.23
2022-11-21T05:44:05.350Z,21.95
2022-11-21T05:45:09.327Z,22.75
2022-11-21T05:46:10.816Z,23.55
2022-11-21T05:47:13.276Z,23.35
2022-11-21T05:48:16.289Z,24.02
2022-11-21T05:49:18.794Z,23.42
2022-11-21T05:50:20.331Z,24.80
2022-11-21T05:51:23.467Z,23.65
2022-11-21T05:52:25.016Z,24.58
2022-11-21T05:53:27.776Z,22.67
2022-11-21T05:54:29.516Z,22.35
2022-11-21T05:55:34.653Z,22.20
2022-11-21T05:56:37.089Z,22.00
2022-11-21T05:57:38.620Z,24.27
2022-11-21T05:58:41.347Z,23.30
2022-11-21T05:59:42.846Z,22.85
2022-11-21T06:00:45.419Z,23.85
2022-11-21T06:02:05.361Z,24.55
2022-11-21T06:03:27.780Z,23.80
2022-11-21T06:04:31.735Z,25.20
2022-11-21T06:05:33.340Z,23.75
2022-11-21T06:06:36.402Z,21.45
2022-11-21T06:07:37.948Z,23.45
2022-11-21T06:08:41.969Z,24.27
2022-11-21T06:09:43.541Z,23.25
2022-11-21T06:10:46.051Z,22.48
2022-11-21T06:11:47.603Z,23.13
2022-11-21T06:12:50.185Z,24.63
2022-11-21T06:13:53.425Z,24.65
2022-11-21T06:14:54.967Z,23.98
2022-11-21T06:16:01.410Z,23.73
2022-11-21T06:17:03.034Z,23.42
2022-11-21T06:18:05.464Z,24.13
2022-11-21T06:19:07.092Z,23.20
2022-11-21T06:20:12.368Z,24.55
2022-11-21T06:21:16.087Z,24.55
2022-11-21T06:22:18.625Z,22.77
2022-11-21T06:23:21.373Z,25.35
2022-11-21T06:24:22.867Z,23.70
2022-11-21T06:25:25.561Z,25.35
2022-11-21T06:26:28.008Z,24.90
2022-11-21T06:27:30.588Z,25.38
2022-11-21T06:28:33.969Z,23.63
2022-11-21T06:29:36.684Z,23.90
2022-11-21T06:30:39.520Z,23.35
2022-11-21T06:31:41.970Z,25.58
2022-11-21T06:32:43.544Z,23.35
2022-11-21T06:33:46.897Z,25.10
2022-11-21T06:34:48.487Z,24.80
2022-11-21T06:35:52.329Z,22.33
2022-11-21T06:36:54.169Z,21.95
2022-11-21T06:37:57.674Z,23.40
2022-11-21T06:38:59.191Z,24.15
2022-11-21T06:40:01.741Z,24.92
2022-11-21T06:41:07.368Z,23.85
2022-11-21T06:42:09.908Z,23.75
2022-11-21T06:43:11.402Z,24.10
2022-11-21T06:44:14.005Z,23.55
2022-11-21T06:45:15.745Z,21.55
2022-11-21T06:46:18.702Z,24.92
2022-11-21T06:47:20.477Z,23.20
2022-11-21T06:48:22.932Z,22.33
2022-11-21T06:49:24.507Z,22.90
2022-11-21T06:50:27.017Z,22.13
2022-11-21T06:51:29.966Z,21.00
2022-11-21T06:52:33.639Z,23.10
2022-11-21T06:53:35.401Z,21.80
2022-11-21T06:54:38.129Z,24.58
2022-11-21T06:55:40.640Z,22.25
2022-11-21T06:56:42.189Z,22.40
2022-11-21T06:57:44.694Z,24.35
2022-11-21T06:58:46.219Z,22.52
2022-11-21T06:59:48.731Z,22.30
2022-11-21T07:00:51.359Z,25.08
2022-11-21T07:01:53.856Z,24.38
2022-11-21T07:03:02.926Z,24.40
2022-11-21T07:04:06.122Z,23.75
2022-11-21T07:05:08.277Z,25.80
2022-11-21T07:06:10.755Z,24.75
2022-11-21T07:07:13.756Z,23.60
2022-11-21T07:08:16.554Z,23.77
2022-11-21T07:09:32.715Z,22.48
2022-11-21T07:10:36.428Z,25.88
2022-11-21T07:11:37.913Z,23.30
2022-11-21T07:12:58.053Z,21.63
2022-11-21T07:14:03.707Z,24.42
2022-11-21T07:15:09.166Z,23.00
2022-11-21T07:16:14.710Z,22.60
2022-11-21T07:17:16.332Z,22.25
2022-11-21T07:18:18.854Z,23.38
2022-11-21T07:19:20.376Z,23.05
2022-11-21T07:20:23.317Z,23.95
2022-11-21T07:21:24.786Z,22.70
2022-11-21T07:22:28.573Z,26.85
2022-11-21T07:23:31.309Z,23.33
2022-11-21T07:24:33.848Z,23.00
2022-11-21T07:25:36.927Z,22.83
2022-11-21T07:26:39.611Z,22.50
2022-11-21T07:27:41.195Z,21.70
2022-11-21T07:28:43.976Z,20.85
2022-11-21T07:29:45.526Z,21.20
2022-11-21T07:30:48.091Z,21.70
2022-11-21T07:31:49.606Z,20.05
2022-11-21T07:32:56.359Z,19.88
2022-11-21T07:33:58.887Z,20.20
2022-11-21T07:35:00.404Z,19.40
2022-11-21T07:36:02.994Z,18.77
2022-11-21T07:37:05.453Z,18.33
2022-11-21T07:38:09.297Z,19.75
2022-11-21T07:39:10.774Z,19.92
2022-11-21T07:40:14.471Z,20.52
2022-11-21T07:41:16.014Z,16.90
2022-11-21T07:42:18.543Z,18.20
2022-11-21T07:43:20.128Z,19.25
2022-11-21T07:44:22.589Z,19.27
2022-11-21T07:45:24.104Z,17.30
2022-11-21T07:46:26.623Z,17.55
2022-11-21T07:47:29.200Z,17.85
2022-11-21T07:48:30.775Z,16.95
2022-11-21T07:49:33.455Z,17.20
2022-11-21T07:50:35.092Z,17.83
2022-11-21T07:51:37.840Z,17.90
2022-11-21T07:52:40.515Z,16.55
2022-11-21T07:53:44.427Z,15.90
2022-11-21T07:54:46.928Z,16.70
2022-11-21T07:55:48.492Z,17.23
2022-11-21T07:56:51.049Z,16.90
2022-11-21T07:58:01.024Z,15.18
2022-11-21T07:59:02.615Z,17.00
2022-11-21T08:00:05.757Z,17.45
2022-11-21T08:01:08.661Z,18.40
2022-11-21T08:02:18.854Z,17.05
2022-11-21T08:03:22.522Z,14.73
2022-11-21T08:04:25.097Z,14.57
2022-11-21T08:05:27.057Z,15.38
2022-11-21T08:06:29.526Z,15.82
2022-11-21T08:07:34.806Z,14.65
2022-11-21T08:08:37.303Z,14.48
2022-11-21T08:09:40.509Z,15.23
2022-11-21T08:10:44.630Z,14.18
2022-11-21T08:11:46.173Z,13.82
2022-11-21T08:12:48.614Z,14.65
2022-11-21T08:13:51.065Z,13.20
2022-11-21T08:14:52.608Z,14.18
2022-11-21T08:15:55.064Z,13.25
2022-11-21T08:16:56.603Z,12.57
2022-11-21T08:17:59.125Z,12.50
2022-11-21T08:19:00.753Z,12.48
2022-11-21T08:20:04.256Z,12.75
2022-11-21T08:21:05.885Z,12.10
2022-11-21T08:22:08.359Z,10.57
2022-11-21T08:23:10.754Z,11.30
2022-11-21T08:24:14.715Z,10.45
2022-11-21T08:25:18.797Z,11.45
2022-11-21T08:26:21.355Z,10.63
2022-11-21T08:27:24.350Z,10.13
2022-11-21T08:28:26.863Z,10.18
2022-11-21T08:29:28.670Z,10.13
2022-11-21T08:30:32.041Z,10.00
2022-11-21T08:31:33.552Z,9.63
2022-11-21T08:32:36.123Z,9.55
2022-11-21T08:33:37.716Z,10.73
2022-11-21T08:34:40.210Z,9.73
2022-11-21T08:35:42.150Z,10.07
2022-11-21T08:36:44.689Z,10.13
2022-11-21T08:37:47.165Z,10.93
2022-11-21T08:38:48.783Z,10.80
2022-11-21T08:39:51.257Z,9.70
2022-11-21T08:41:13.353Z,10.38
2022-11-21T08:42:18.904Z,9.80
2022-11-21T08:43:20.410Z,10.02
2022-11-21T08:44:22.894Z,9.70
2022-11-21T08:45:25.820Z,9.57
2022-11-21T08:46:28.128Z,11.15
2022-11-21T08:47:33.250Z,10.23
2022-11-21T08:48:34.920Z,8.80
2022-11-21T08:49:37.369Z,8.63
2022-11-21T08:50:39.224Z,9.05
2022-11-21T08:51:41.707Z,8.45
2022-11-21T08:52:44.536Z,8.93
2022-11-21T08:53:47.030Z,8.88
2022-11-21T08:54:49.567Z,9.40
2022-11-21T08:55:51.083Z,9.05
2022-11-21T08:56:55.164Z,9.20
2022-11-21T08:57:57.761Z,8.10
2022-11-21T08:58:59.516Z,8.00
2022-11-21T09:00:02.005Z,8.68
2022-11-21T09:01:06.238Z,10.07
2022-11-21T09:02:11.870Z,8.38
2022-11-21T09:03:15.796Z,8.00
2022-11-21T09:04:21.697Z,8.40
2022-11-21T09:05:24.542Z,8.90
2022-11-21T09:06:26.097Z,8.45
2022-11-21T09:07:28.671Z,9.75
2022-11-21T09:08:30.413Z,9.43
2022-11-21T09:09:33.822Z,8.65
2022-11-21T09:10:35.947Z,8.73
2022-11-21T09:11:38.417Z,9.50
2022-11-21T09:12:42.343Z,8.90
2022-11-21T09:14:04.791Z,9.38
2022-11-21T09:15:26.024Z,9.38
2022-11-21T09:16:46.477Z,8.02
2022-11-21T09:18:03.443Z,8.77
2022-11-21T09:19:05.877Z,8.73
2022-11-21T09:20:09.484Z,9.15
2022-11-21T09:21:14.406Z,9.30
2022-11-21T09:22:16.851Z,10.02
2022-11-21T09:23:19.337Z,9.23
2022-11-21T09:24:21.927Z,9.95
2022-11-21T09:25:23.448Z,9.30
2022-11-21T09:26:25.927Z,10.50
2022-11-21T09:27:27.675Z,9.20
2022-11-21T09:28:31.522Z,9.25
2022-11-21T09:29:33.990Z,10.40
2022-11-21T09:30:36.661Z,8.57
2022-11-21T09:31:39.347Z,9.35
2022-11-21T09:32:41.851Z,8.85
2022-11-21T09:33:44.412Z,8.05
2022-11-21T09:34:47.058Z,8.93
2022-11-21T09:35:48.564Z,9.80
2022-11-21T09:36:51.032Z,8.82
2022-11-21T09:37:52.874Z,9.65
2022-11-21T09:38:55.380Z,10.10
2022-11-21T09:39:56.925Z,9.57
2022-11-21T09:41:32.280Z,9.30
2022-11-21T09:42:54.391Z,9.25
2022-11-21T09:44:04.300Z,7.78
2022-11-21T09:45:09.990Z,7.82
2022-11-21T09:46:16.001Z,8.38
2022-11-21T09:47:22.987Z,8.80
2022-11-21T09:49:23.566Z,9.77
2022-11-21T09:50:31.995Z,8.93
2022-11-21T09:51:38.378Z,7.80
2022-11-21T09:52:47.016Z,9.38
2022-11-21T09:53:57.975Z,7.95
2022-11-21T09:55:05.587Z,9.40
2022-11-21T09:56:12.728Z,8.27
2022-11-21T09:57:17.022Z,9.05
2022-11-21T09:58:27.100Z,8.43
2022-11-21T09:59:35.560Z,8.75
2022-11-21T10:00:38.244Z,8.38
2022-11-21T10:01:40.827Z,9.40
2022-11-21T10:02:43.472Z,8.27
2022-11-21T10:03:48.261Z,8.50
2022-11-21T10:04:51.461Z,8.13
2022-11-21T10:05:57.549Z,8.25
2022-11-21T10:07:05.362Z,9.57
2022-11-21T10:08:17.155Z,8.90
2022-11-21T10:09:28.508Z,7.40
2022-11-21T10:10:46.055Z,7.70
2022-11-21T10:12:13.388Z,7.53
2022-11-21T10:13:26.451Z,7.93
2022-11-21T10:14:45.805Z,7.68
2022-11-21T10:15:59.712Z,6.88
2022-11-21T10:17:14.124Z,7.75
2022-11-21T10:18:36.912Z,8.00
2022-11-21T10:19:57.649Z,8.07
2022-11-21T10:21:07.539Z,7.43
2022-11-21T10:22:30.771Z,8.90
2022-11-21T10:23:44.714Z,7.32
2022-11-21T10:24:57.504Z,7.43
2022-11-21T10:26:15.567Z,7.38
2022-11-21T10:27:22.616Z,6.90
2022-11-21T10:28:41.828Z,7.50
2022-11-21T10:29:53.175Z,6.93
2022-11-21T10:31:00.017Z,7.10
2022-11-21T10:32:04.747Z,7.50
2022-11-21T10:33:16.024Z,7.32
2022-11-21T10:34:22.478Z,8.23
2022-11-21T10:35:27.450Z,7.20
2022-11-21T10:36:37.501Z,8.05
2022-11-21T10:37:45.658Z,8.70
2022-11-21T10:38:50.202Z,7.03
2022-11-21T10:39:55.570Z,7.70
2022-11-21T10:41:04.472Z,8.63
2022-11-21T10:42:20.255Z,8.35
2022-11-21T10:43:53.891Z,7.35
2022-11-21T10:45:19.080Z,8.75
2022-11-21T10:46:20.910Z,6.97
2022-11-21T10:47:28.307Z,6.03
2022-11-21T10:48:30.821Z,5.57
2022-11-21T10:49:34.367Z,5.53
2022-11-21T10:50:48.367Z,5.90
2022-11-21T10:51:57.582Z,5.53
2022-11-21T10:53:29.756Z,5.55
2022-11-21T10:54:34.319Z,5.90
2022-11-21T10:55:36.866Z,5.93
2022-11-21T10:56:38.790Z,5.50
2022-11-21T10:57:45.385Z,6.07
2022-11-21T10:58:50.085Z,5.40
2022-11-21T11:00:02.165Z,5.70
2022-11-21T11:01:21.577Z,5.82
2022-11-21T11:02:26.003Z,6.50
2022-11-21T11:03:30.005Z,6.13
2022-11-21T11:04:43.917Z,5.68
2022-11-21T11:05:57.222Z,6.10
2022-11-21T11:07:21.327Z,5.80
2022-11-21T11:08:23.866Z,6.07
2022-11-21T11:09:31.709Z,6.55
2022-11-21T11:10:36.144Z,6.18
2022-11-21T11:11:38.630Z,6.57
2022-11-21T11:13:02.182Z,7.60
2022-11-21T11:14:15.593Z,5.85
2022-11-21T11:15:21.708Z,7.68
2022-11-21T11:16:26.043Z,6.57
2022-11-21T11:17:29.906Z,6.50
2022-11-21T11:18:35.212Z,5.57
2022-11-21T11:19:40.311Z,6.25
2022-11-21T11:20:45.382Z,5.70
2022-11-21T11:21:49.552Z,6.35
2022-11-21T11:22:51.290Z,5.40
2022-11-21T11:23:55.446Z,5.93
2022-11-21T11:25:00.479Z,6.07
2022-11-21T11:26:03.491Z,6.55
2022-11-21T11:27:05.982Z,5.80
2022-11-21T11:28:08.118Z,5.90
2022-11-21T11:29:15.435Z,4.97
2022-11-21T11:30:21.226Z,6.40
2022-11-21T11:31:22.775Z,5.20
2022-11-21T11:32:25.491Z,6.25
2022-11-21T11:33:32.972Z,5.93
2022-11-21T11:34:41.004Z,5.25
2022-11-21T11:35:43.579Z,5.80
2022-11-21T11:37:03.931Z,5.90
2022-11-21T11:38:10.165Z,5.72
2022-11-21T11:39:21.748Z,6.32
2022-11-21T11:40:29.594Z,6.10
2022-11-21T11:42:16.442Z,5.15
2022-11-21T11:43:52.273Z,4.80
2022-11-21T11:45:33.322Z,14.25
2022-11-21T11:47:03.526Z,8.32
2022-11-21T11:48:09.893Z,10.95
2022-11-21T11:49:21.075Z,8.27
2022-11-21T11:50:26.926Z,6.88
2022-11-21T11:51:33.885Z,5.03
2022-11-21T11:52:44.179Z,4.40
2022-11-21T11:53:50.814Z,4.65
2022-11-21T11:54:59.018Z,4.45
2022-11-21T11:56:06.091Z,5.05
2022-11-21T11:57:09.648Z,4.70
2022-11-21T11:58:21.429Z,4.80
2022-11-21T11:59:29.380Z,6.90
2022-11-21T12:00:39.244Z,5.50
2022-11-21T12:01:50.140Z,5.30
2022-11-21T12:02:59.754Z,6.35
2022-11-21T12:04:07.076Z,6.93
2022-11-21T12:05:15.589Z,6.90
2022-11-21T12:06:21.938Z,5.93
2022-11-21T12:08:33.034Z,7.93
2022-11-21T12:08:58.972Z,5.68
2022-11-21T12:10:06.832Z,6.53
2022-11-21T12:11:41.805Z,5.15
2022-11-21T12:12:49.973Z,4.53
2022-11-21T12:13:55.621Z,4.65
2022-11-21T12:15:30.932Z,4.70
2022-11-21T12:16:34.999Z,4.47
2022-11-21T12:17:43.066Z,4.85
2022-11-21T12:18:54.261Z,4.95
2022-11-21T12:19:58.779Z,5.60
2022-11-21T12:21:08.096Z,3.92
2022-11-21T12:22:12.514Z,3.70
2022-11-21T12:23:15.942Z,4.70
2022-11-21T12:24:20.964Z,4.18
2022-11-21T12:25:30.013Z,3.90
2022-11-21T12:26:42.250Z,3.83
2022-11-21T12:27:50.551Z,3.25
2022-11-21T12:29:06.994Z,3.47
2022-11-21T12:30:21.787Z,3.55
2022-11-21T12:31:32.682Z,3.45
2022-11-21T12:32:56.983Z,4.38
2022-11-21T12:34:11.595Z,4.47
2022-11-21T12:35:27.025Z,4.15
2022-11-21T12:36:39.388Z,3.33
2022-11-21T12:37:48.136Z,3.85
2022-11-21T12:39:03.935Z,3.15
2022-11-21T12:40:17.857Z,3.95
2022-11-21T12:41:46.582Z,18.80
2022-11-21T12:43:04.091Z,3.97
2022-11-21T12:44:20.199Z,3.55
2022-11-21T12:45:31.585Z,2.97
2022-11-21T12:46:42.186Z,3.80
2022-11-21T12:48:32.810Z,4.30
2022-11-21T12:50:02.186Z,3.55
2022-11-21T12:52:03.401Z,2.97
2022-11-21T12:53:31.478Z,3.17
2022-11-21T12:54:53.332Z,3.40
2022-11-21T12:56:08.873Z,2.95
2022-11-21T12:57:11.880Z,2.60
2022-11-21T12:58:27.219Z,3.38
2022-11-21T12:59:31.532Z,2.72
2022-11-21T13:00:43.910Z,3.00
2022-11-21T13:01:59.827Z,3.50
2022-11-21T13:03:33.318Z,2.65
2022-11-21T13:04:41.507Z,2.20
2022-11-21T13:05:48.105Z,2.70
2022-11-21T13:06:52.405Z,2.17
2022-11-21T13:08:06.695Z,3.28
2022-11-21T13:09:14.908Z,2.35
2022-11-21T13:10:18.360Z,3.22
2022-11-21T13:11:57.268Z,2.75
2022-11-21T13:13:07.738Z,2.35
2022-11-21T13:14:18.004Z,2.25
2022-11-21T13:15:26.402Z,2.70
2022-11-21T13:16:44.859Z,2.85
2022-11-21T13:17:53.270Z,3.28
2022-11-21T13:18:54.957Z,2.70
2022-11-21T13:20:01.484Z,2.15
2022-11-21T13:21:04.148Z,2.00
2022-11-21T13:22:05.685Z,2.50
2022-11-21T13:23:38.474Z,2.28
2022-11-21T13:24:57.968Z,2.25
2022-11-21T13:26:00.466Z,2.90
2022-11-21T13:27:02.124Z,1.90
2022-11-21T13:28:24.833Z,2.03
2022-11-21T13:29:27.790Z,1.98
2022-11-21T13:30:29.520Z,1.70
2022-11-21T13:31:33.434Z,2.40
2022-11-21T13:32:38.954Z,2.30
2022-11-21T13:33:48.339Z,2.17
2022-11-21T13:34:50.909Z,2.15
2022-11-21T13:35:57.316Z,1.80
2022-11-21T13:37:00.090Z,1.60
2022-11-21T13:38:03.299Z,2.42
2022-11-21T13:39:30.938Z,1.98
2022-11-21T13:40:37.703Z,1.90
2022-11-21T13:42:20.221Z,1.90
2022-11-21T13:43:33.070Z,2.22
2022-11-21T13:44:41.313Z,1.88
2022-11-21T13:45:45.501Z,2.10
2022-11-21T13:47:00.790Z,1.85
2022-11-21T13:48:18.101Z,1.50
2022-11-21T13:49:26.415Z,2.20
2022-11-21T13:50:47.757Z,1.45
2022-11-21T13:51:54.850Z,1.95
2022-11-21T13:53:04.574Z,1.75
2022-11-21T13:54:26.901Z,1.92
2022-11-21T13:55:57.911Z,2.10
2022-11-21T13:57:13.450Z,1.55
2022-11-21T13:58:29.671Z,2.60
2022-11-21T14:00:02.116Z,2.35
2022-11-21T14:01:24.092Z,2.38
2022-11-21T14:02:44.449Z,2.13
2022-11-21T14:04:04.288Z,2.20
2022-11-21T14:05:40.227Z,1.85
2022-11-21T14:06:44.027Z,2.47
2022-11-21T14:07:48.343Z,2.35
2022-11-21T14:09:21.427Z,2.47
2022-11-21T14:10:34.100Z,1.83
2022-11-21T14:11:41.181Z,2.00
2022-11-21T14:12:49.045Z,4.65
2022-11-21T14:13:51.785Z,2.00
2022-11-21T14:15:09.401Z,3.80
2022-11-21T14:16:25.303Z,2.20
2022-11-21T14:17:44.522Z,2.60
2022-11-21T14:18:47.818Z,2.42
2022-11-21T14:19:51.344Z,3.72
2022-11-21T14:20:57.267Z,2.15